Flight Track Log - Related Links

Times and Time Zones

All times are in EDT time to prevent confusion due to time zone crossing. See the ASH2892 flight status page for this flight to view local times or setup timezone preferences in your user account.

Time Position Orientation Groundspeed Altitude Reporting Facility
EDT Latitude Longitude Course Direction KTS MPH feet Rate Location/Type
Mon 02:55:03 PM 35.2353 -80.9594 282° West 173 199 1,700  Level Atlanta Center
Mon 02:56:17 PM 35.2928 -81.0081 325° Northwest 240 276 3,600 2,146 Climbing Atlanta Center
Mon 02:57:20 PM 35.3728 -81.0383 343° North 276 318 6,600 2,927 Climbing Atlanta Center
Mon 02:58:20 PM 35.4489 -81.0739 339° North 288 331 9,600 2,800 Climbing Atlanta Center
Mon 02:59:00 PM 35.4417 -82.2233 283° West  Level Estimated
Mon 02:59:20 PM 35.5183 -81.1044 340° North 313 360 12,200  Level Atlanta Center
Mon 03:00:00 PM 35.4856 -82.4790 282° West  Level Estimated
Mon 03:00:20 PM 35.6025 -81.1322 345° North 313 360 14,300  Level Atlanta Center
Mon 03:01:20 PM 35.6953 -81.1697 342° North 321 369 15,700 1,450 Climbing Atlanta Center
Mon 03:02:20 PM 35.7856 -81.2050 342° North 358 412 17,200 1,850 Climbing Atlanta Center
Mon 03:03:20 PM 35.8847 -81.2450 342° North 369 425 19,400 1,800 Climbing Atlanta Center
Mon 03:04:20 PM 35.9411 -81.3458 305° West 363 418 20,800 1,450 Climbing Atlanta Center
Mon 03:05:20 PM 35.9503 -81.4761 275° West 343 395 22,300 1,100 Climbing Atlanta Center
Mon 03:06:20 PM 35.9508 -81.6172 270° West 375 432 23,000 350 Climbing Atlanta Center
Mon 03:07:20 PM 35.9514 -81.7456 270° West 380 437 23,000 1,050 Level Atlanta Center
Mon 03:08:20 PM 35.9494 -81.8739 269° West 385 443 25,100 1,900 Climbing Atlanta Center
Mon 03:09:20 PM 35.9475 -82.0022 269° West 379 436 26,800 1,450 Climbing Atlanta Center
Mon 03:10:20 PM 35.9456 -82.1331 269° West 379 436 28,000 600 Climbing Atlanta Center
Mon 03:11:20 PM 35.9392 -82.2794 267° West 386 444 28,000  Level Atlanta Center
Mon 03:12:20 PM 35.9033 -82.3981 250° West 371 427 28,000  Level Atlanta Center
Mon 03:13:20 PM 35.8675 -82.5217 250° West 382 440 28,000  Level Atlanta Center
Mon 03:14:20 PM 35.8272 -82.6481 249° West 391 450 28,000  Level Atlanta Center
Mon 03:15:20 PM 35.8017 -82.7892 257° West 416 479 28,000  Level Atlanta Center
Mon 03:16:20 PM 35.7822 -82.9303 260° West 422 486 28,000  Level Atlanta Center
Mon 03:17:20 PM 35.7894 -83.0633 274° West 417 480 28,000  Level Atlanta Center
Mon 03:18:20 PM 35.8072 -83.2067 279° West 408 470 28,000  Level Atlanta Center
Mon 03:19:20 PM 35.8269 -83.3369 281° West 420 483 28,000 -50 Level Atlanta Center
Mon 03:20:20 PM 35.8483 -83.4853 280° West 436 502 27,900 -550 Descending Atlanta Center
Mon 03:21:20 PM 35.8700 -83.6389 280° West 449 517 26,900 -1,000 Descending Atlanta Center
Mon 03:22:20 PM 35.8911 -83.8003 279° West 466 536 25,900 -1,000 Descending Atlanta Center
Mon 03:23:20 PM 35.8892 -83.9592 269° West 471 542 24,900 -950 Descending Atlanta Center
Mon 03:24:20 PM 35.8683 -84.1131 261° West 465 535 24,000 -800 Descending Atlanta Center
Mon 03:25:20 PM 35.8433 -84.2642 259° West 460 529 23,300 -500 Descending Atlanta Center
Mon 03:26:20 PM 35.8200 -84.4050 258° West 448 516 23,000 -150 Descending Atlanta Center
Mon 03:27:20 PM 35.7964 -84.5456 258° West 429 494 23,000 -350 Level Atlanta Center
Mon 03:28:20 PM 35.7686 -84.6964 257° West 423 487 22,300 -912 Descending Atlanta Center
Mon 03:30:11 PM 35.7228 -84.9672 258° West 455 524 20,400 -798 Descending Memphis Center
Mon 03:31:13 PM 35.6972 -85.1183 258° West 448 516 20,000 -194 Descending Memphis Center
Mon 03:32:15 PM 35.6750 -85.2483 258° West 399 459 20,000  Level Memphis Center
Mon 03:33:17 PM 35.6517 -85.3739 257° West 379 436 20,000  Level Memphis Center
Mon 03:34:19 PM 35.6292 -85.4989 258° West 379 436 20,000 -629 Level Memphis Center
Mon 03:35:21 PM 35.5997 -85.6547 257° West 388 447 18,700 -1,694 Descending Memphis Center
Mon 03:36:23 PM 35.5744 -85.7867 257° West 393 452 16,500 -1,935 Descending Memphis Center
Mon 03:37:25 PM 35.5678 -85.9100 266° West 378 435 14,700 -1,548 Descending Memphis Center
Mon 03:38:27 PM 35.6222 -85.9997 307° West 344 396 13,300 -1,403 Descending Memphis Center
Mon 03:39:29 PM 35.6800 -86.0814 311° West 322 371 11,800 -1,742 Descending Memphis Center
Mon 03:40:31 PM 35.7453 -86.1711 312° West 303 349 9,700 -1,742 Descending Memphis Center
Mon 03:41:33 PM 35.7783 -86.2631 294° West 291 335 8,200 -1,548 Descending Memphis Center
Mon 03:42:35 PM 35.8108 -86.3528 294° West 288 331 6,500 -1,645 Descending Memphis Center
Mon 03:43:37 PM 35.8417 -86.4411 293° West 281 323 4,800 -1,680 Descending Memphis Center
Mon 03:44:40 PM 35.8725 -86.5256 294° West 273 314 3,000 -1,056 Descending Memphis Center
Mon 03:45:42 PM 35.9019 -86.6064 294° West 260 299 2,600 -242 Descending Memphis Center
Mon 03:46:44 PM 35.9344 -86.6817 298° West 250 288 2,500 -48 Descending Memphis Center
Mon 03:47:46 PM 35.9869 -86.7178 331° Northwest 239 275 2,500 -194 Level Memphis Center
Mon 03:48:48 PM 36.0425 -86.6961 18° North 182 209 2,100 -581 Descending Memphis Center
Mon 03:49:50 PM 36.0800 -86.6800 19° North 159 183 1,300 -677 Descending Memphis Center
Mon 03:50:52 PM 36.1128 -86.6678 17° North 150 173 700 -581 Descending Memphis Center
Mon 03:52:00 PM 36.1167 -86.6667 345° North  Level FlightAware Approximate

Login

Don't have an account? Register now (free) for customized features, flight alerts, and more!